createdAt,value
2018-11-23T00:01:32.910Z,102154.67
2018-11-23T00:04:02.217Z,102163.23
2018-11-23T00:06:31.611Z,102155.67
2018-11-23T00:09:00.933Z,102149.97
2018-11-23T00:11:30.321Z,102153.98
2018-11-23T00:13:59.684Z,102152.09
2018-11-23T00:16:29.069Z,102151.00
2018-11-23T00:18:58.330Z,102154.38
2018-11-23T00:21:27.615Z,102152.78
2018-11-23T00:23:57.693Z,102154.77
2018-11-23T00:26:26.985Z,102148.11
2018-11-23T00:28:56.359Z,102151.56
2018-11-23T00:31:25.695Z,102153.68
2018-11-23T00:33:55.000Z,102152.08
2018-11-23T00:36:24.306Z,102158.74
2018-11-23T00:38:53.668Z,102158.20
2018-11-23T00:41:23.115Z,102150.95
2018-11-23T00:43:52.502Z,102155.16
2018-11-23T00:46:21.857Z,102159.98
2018-11-23T00:48:51.220Z,102161.59
2018-11-23T00:51:20.474Z,102159.98
2018-11-23T00:53:49.772Z,102160.77
2018-11-23T00:56:19.055Z,102153.84
2018-11-23T00:58:48.360Z,102157.81
2018-11-23T01:01:17.709Z,102153.38
2018-11-23T01:03:46.989Z,102155.45
2018-11-23T01:06:16.300Z,102155.14
2018-11-23T01:08:45.889Z,102163.70
2018-11-23T01:11:15.187Z,102158.20
2018-11-23T01:13:44.463Z,102160.27
2018-11-23T01:16:13.764Z,102156.83
2018-11-23T01:18:43.011Z,102161.05
2018-11-23T01:21:12.267Z,102156.25
2018-11-23T01:23:41.562Z,102152.07
2018-11-23T01:26:10.955Z,102151.38
2018-11-23T01:28:40.261Z,102145.71
2018-11-23T01:31:09.935Z,102143.03
2018-11-23T01:33:39.225Z,102136.20
2018-11-23T01:36:08.528Z,102139.16
2018-11-23T01:38:38.008Z,102133.42
2018-11-23T01:41:07.266Z,102135.45
2018-11-23T01:43:36.562Z,102126.50
2018-11-23T01:46:05.909Z,102128.73
2018-11-23T01:48:35.215Z,102119.66
2018-11-23T01:51:04.477Z,102120.75
2018-11-23T01:53:34.456Z,102116.86
2018-11-23T01:56:03.757Z,102115.02
2018-11-23T01:58:33.160Z,102116.73
2018-11-23T02:01:02.520Z,102106.71
2018-11-23T02:03:31.791Z,102111.84
2018-11-23T02:06:01.106Z,102113.28
2018-11-23T02:08:30.527Z,102105.20
2018-11-23T02:10:59.794Z,102106.73
2018-11-23T02:13:29.044Z,102107.95
2018-11-23T02:15:58.768Z,102109.34
2018-11-23T02:18:28.099Z,102110.02
2018-11-23T02:20:57.442Z,102102.59
2018-11-23T02:23:26.779Z,102103.81
2018-11-23T02:25:56.222Z,102110.99
2018-11-23T02:28:25.508Z,102107.53
2018-11-23T02:30:54.832Z,102104.90
2018-11-23T02:33:24.115Z,102099.33
2018-11-23T02:35:53.448Z,102103.48
2018-11-23T02:38:23.010Z,102097.69
2018-11-23T02:40:52.347Z,102091.77
2018-11-23T02:43:21.626Z,102104.42
2018-11-23T02:45:50.978Z,102102.91
2018-11-23T02:48:20.431Z,102111.94
2018-11-23T02:50:49.853Z,102098.89
2018-11-23T02:53:19.241Z,102101.05
2018-11-23T02:55:48.544Z,102104.13
2018-11-23T02:58:17.851Z,102100.11
2018-11-23T03:00:47.259Z,102094.19
2018-11-23T03:03:16.557Z,102092.89
2018-11-23T03:05:45.840Z,102092.90
2018-11-23T03:08:15.123Z,102084.55
2018-11-23T03:10:44.571Z,102091.37
2018-11-23T03:13:13.843Z,102084.13
2018-11-23T03:15:43.440Z,102086.06
2018-11-23T03:18:12.735Z,102087.23
2018-11-23T03:20:41.995Z,102096.34
2018-11-23T03:23:11.743Z,102082.77
2018-11-23T03:25:41.039Z,102086.88
2018-11-23T03:28:10.392Z,102083.92
2018-11-23T03:30:39.700Z,102073.89
2018-11-23T03:33:08.956Z,102082.34
2018-11-23T03:35:38.239Z,102078.67
2018-11-23T03:38:07.567Z,102075.65
2018-11-23T03:40:36.817Z,102071.29
2018-11-23T03:43:06.073Z,102080.38
2018-11-23T03:45:35.492Z,102077.22
2018-11-23T03:48:11.408Z,102063.57
2018-11-23T03:50:40.769Z,102066.45
2018-11-23T03:53:10.159Z,102067.52
2018-11-23T03:55:39.423Z,102062.00
2018-11-23T03:58:08.760Z,102072.31
2018-11-23T04:00:38.097Z,102070.79
2018-11-23T04:03:07.376Z,102062.67
2018-11-23T04:05:37.034Z,102063.73
2018-11-23T04:08:06.337Z,102065.77
2018-11-23T04:10:35.605Z,102053.44
2018-11-23T04:13:04.840Z,102058.48
2018-11-23T04:15:34.278Z,102051.89
2018-11-23T04:18:03.525Z,102058.67
2018-11-23T04:20:32.928Z,102059.10
2018-11-23T04:23:02.210Z,102062.84
2018-11-23T04:25:31.530Z,102062.77
2018-11-23T04:28:01.183Z,102061.67
2018-11-23T04:30:30.439Z,102057.95
2018-11-23T04:32:59.734Z,102055.56
2018-11-23T04:35:29.132Z,102058.71
2018-11-23T04:37:58.521Z,102050.47
2018-11-23T04:40:34.438Z,102047.39
2018-11-23T04:43:03.685Z,102056.07
2018-11-23T04:45:32.931Z,102054.42
2018-11-23T04:48:02.792Z,102046.81
2018-11-23T04:50:32.088Z,102053.61
2018-11-23T04:53:01.596Z,102053.12
2018-11-23T04:55:30.909Z,102054.90
2018-11-23T04:58:00.191Z,102051.78
2018-11-23T05:00:29.512Z,102047.23
2018-11-23T05:02:58.819Z,102054.23
2018-11-23T05:05:28.090Z,102056.84
2018-11-23T05:07:57.430Z,102060.44
2018-11-23T05:10:26.929Z,102060.39
2018-11-23T05:12:56.753Z,102067.94
2018-11-23T05:15:26.075Z,102061.56
2018-11-23T05:17:55.423Z,102060.25
2018-11-23T05:20:24.736Z,102059.44
2018-11-23T05:22:54.016Z,102058.55
2018-11-23T05:25:23.386Z,102060.05
2018-11-23T05:27:52.658Z,102049.39
2018-11-23T05:30:22.424Z,102054.19
2018-11-23T05:32:52.190Z,102056.95
2018-11-23T05:35:21.671Z,102053.06
2018-11-23T05:37:51.079Z,102047.19
2018-11-23T05:40:21.356Z,102043.91
2018-11-23T05:42:50.600Z,102037.60
2018-11-23T05:45:21.270Z,102045.77
2018-11-23T05:47:50.896Z,102041.31
2018-11-23T05:50:22.011Z,102044.17
2018-11-23T05:52:51.916Z,102047.84
2018-11-23T05:55:21.520Z,102035.22
2018-11-23T05:57:51.058Z,102036.78
2018-11-23T06:00:22.121Z,102036.39
2018-11-23T06:02:51.711Z,102037.47
2018-11-23T06:05:21.162Z,102031.77
2018-11-23T06:07:50.551Z,102029.55
2018-11-23T06:10:20.726Z,102039.37
2018-11-23T06:12:49.978Z,102036.27
2018-11-23T06:15:20.910Z,102030.17
2018-11-23T06:17:50.856Z,102033.20
2018-11-23T06:20:22.187Z,102027.55
2018-11-23T06:22:52.440Z,102030.70
2018-11-23T06:25:39.494Z,102027.13
2018-11-23T06:28:08.767Z,102029.51
2018-11-23T06:30:38.036Z,102026.27
2018-11-23T06:33:24.517Z,102026.44
2018-11-23T06:35:53.778Z,102029.31
2018-11-23T06:38:23.068Z,102035.32
2018-11-23T06:40:52.480Z,102034.19
2018-11-23T06:43:21.818Z,102035.02
2018-11-23T06:45:51.155Z,102036.56
2018-11-23T06:48:20.421Z,102045.34
2018-11-23T06:50:49.653Z,102045.20
2018-11-23T06:53:18.910Z,102046.98
2018-11-23T06:55:48.393Z,102047.92
2018-11-23T06:58:17.700Z,102043.55
2018-11-23T07:00:47.176Z,102049.44
2018-11-23T07:03:16.647Z,102049.44
2018-11-23T07:05:45.957Z,102043.78
2018-11-23T07:08:15.459Z,102050.08
2018-11-23T07:10:44.817Z,102049.56
2018-11-23T07:13:14.303Z,102048.44
2018-11-23T07:15:43.636Z,102043.08
2018-11-23T07:18:13.075Z,102046.87
2018-11-23T07:20:42.608Z,102043.86
2018-11-23T07:23:11.924Z,102042.77
2018-11-23T07:25:41.423Z,102047.49
2018-11-23T07:28:15.496Z,102051.30
2018-11-23T07:30:40.241Z,102048.83
2018-11-23T07:33:09.580Z,102052.59
2018-11-23T07:35:38.992Z,102042.66
2018-11-23T07:38:08.281Z,102047.19
2018-11-23T07:40:55.578Z,102043.83
2018-11-23T07:43:24.856Z,102038.85
2018-11-23T07:45:54.145Z,102032.93
2018-11-23T07:48:23.453Z,102036.52
2018-11-23T07:50:52.730Z,102035.44
2018-11-23T07:53:22.039Z,102036.48
2018-11-23T07:55:52.304Z,102042.97
2018-11-23T07:58:21.763Z,102045.47
2018-11-23T08:00:51.439Z,102049.07
2018-11-23T08:03:20.869Z,102051.57
2018-11-23T08:05:50.178Z,102049.28
2018-11-23T08:08:19.451Z,102046.33
2018-11-23T08:10:47.928Z,102049.75
2018-11-23T08:13:17.305Z,102045.89
2018-11-23T08:15:46.606Z,102054.76
2018-11-23T08:18:16.016Z,102051.59
2018-11-23T08:20:45.303Z,102044.54
2018-11-23T08:23:14.601Z,102043.69
2018-11-23T08:25:44.131Z,102048.52
2018-11-23T08:28:13.438Z,102048.82
2018-11-23T08:30:42.706Z,102055.74
2018-11-23T08:33:12.203Z,102054.73
2018-11-23T08:35:41.479Z,102042.92
2018-11-23T08:38:10.995Z,102039.48
2018-11-23T08:40:40.295Z,102043.48
2018-11-23T08:43:09.640Z,102038.80
2018-11-23T08:45:39.075Z,102044.63
2018-11-23T08:48:08.971Z,102040.53
2018-11-23T08:50:38.326Z,102036.52
2018-11-23T08:53:07.599Z,102035.05
2018-11-23T08:55:36.964Z,102029.31
2018-11-23T08:58:06.436Z,102031.02
2018-11-23T09:00:35.736Z,102027.81
2018-11-23T09:03:05.121Z,102024.81
2018-11-23T09:05:34.536Z,102023.70
2018-11-23T09:08:03.815Z,102019.09
2018-11-23T09:10:33.508Z,102025.71
2018-11-23T09:13:04.441Z,102025.18
2018-11-23T09:15:33.900Z,102020.22
2018-11-23T09:18:03.181Z,102022.87
2018-11-23T09:20:32.503Z,102019.66
2018-11-23T09:23:01.909Z,102019.66
2018-11-23T09:25:31.180Z,102023.11
2018-11-23T09:28:00.455Z,102018.11
2018-11-23T09:30:30.032Z,102019.75
2018-11-23T09:32:59.384Z,102013.64
2018-11-23T09:35:29.241Z,102015.09
2018-11-23T09:37:58.722Z,102013.83
2018-11-23T09:40:29.535Z,102019.00
2018-11-23T09:42:58.856Z,102014.14
2018-11-23T09:45:32.321Z,102008.53
2018-11-23T09:48:02.840Z,102020.27
2018-11-23T09:50:32.168Z,102013.23
2018-11-23T09:53:03.128Z,102011.91
2018-11-23T09:55:33.828Z,102008.20
2018-11-23T09:58:03.121Z,102004.26
2018-11-23T10:00:34.864Z,102001.39
2018-11-23T10:03:04.012Z,102001.38
2018-11-23T10:08:04.896Z,101996.73
2018-11-23T10:10:34.351Z,102003.81
2018-11-23T10:13:03.862Z,101996.92
2018-11-23T10:15:33.864Z,102000.25
2018-11-23T10:18:03.462Z,101991.93
2018-11-23T10:20:34.048Z,101994.52
2018-11-23T10:23:03.907Z,101990.17
2018-11-23T10:25:34.546Z,101988.77
2018-11-23T10:28:03.824Z,101984.34
2018-11-23T10:30:34.632Z,101976.80
2018-11-23T10:33:05.312Z,101967.59
2018-11-23T10:35:34.975Z,101969.58
2018-11-23T10:38:05.215Z,101956.67
2018-11-23T10:40:37.423Z,101958.86
2018-11-23T10:43:07.434Z,101955.20
2018-11-23T10:45:37.142Z,101951.59
2018-11-23T10:48:07.953Z,101953.34
2018-11-23T10:50:38.729Z,101943.22
2018-11-23T10:53:08.256Z,101944.74
2018-11-23T10:55:38.989Z,101944.17
2018-11-23T10:58:08.282Z,101941.52
2018-11-23T11:00:42.873Z,101940.25
2018-11-23T11:03:17.473Z,101942.37
2018-11-23T11:05:52.222Z,101933.39
2018-11-23T11:08:21.678Z,101931.48
2018-11-23T11:10:51.466Z,101933.20
2018-11-23T11:13:21.142Z,101925.13
2018-11-23T11:15:50.588Z,101910.60
2018-11-23T11:18:19.881Z,101915.58
2018-11-23T11:20:49.229Z,101917.58
2018-11-23T11:23:18.519Z,101918.33
2018-11-23T11:25:47.849Z,101913.44
2018-11-23T11:28:17.264Z,101911.94
2018-11-23T11:30:46.638Z,101909.94
2018-11-23T11:33:15.903Z,101911.17
2018-11-23T11:35:45.809Z,101901.02
2018-11-23T11:38:15.168Z,101913.94
2018-11-23T11:40:44.454Z,101908.62
2018-11-23T11:43:13.805Z,101908.33
2018-11-23T11:45:43.385Z,101914.33
2018-11-23T11:48:12.566Z,101903.88
2018-11-23T11:50:42.030Z,101896.95
2018-11-23T11:53:11.553Z,101892.25
2018-11-23T11:55:40.853Z,101899.59
2018-11-23T11:58:10.336Z,101897.28
2018-11-23T12:00:39.597Z,101893.75
2018-11-23T12:03:09.010Z,101890.92
2018-11-23T12:05:44.869Z,101886.80
2018-11-23T12:08:14.336Z,101872.69
2018-11-23T12:10:43.630Z,101868.31
2018-11-23T12:13:13.364Z,101862.70
2018-11-23T12:15:42.817Z,101863.77
2018-11-23T12:18:12.165Z,101859.47
2018-11-23T12:20:41.500Z,101858.48
2018-11-23T12:23:10.824Z,101854.00
2018-11-23T12:25:40.101Z,101858.20
2018-11-23T12:28:09.592Z,101857.90
2018-11-23T12:30:38.903Z,101863.14
2018-11-23T12:33:08.220Z,101858.61
2018-11-23T12:35:38.046Z,101858.30
2018-11-23T12:38:07.340Z,101855.93
2018-11-23T12:40:36.656Z,101850.66
2018-11-23T12:43:06.026Z,101858.03
2018-11-23T12:45:35.326Z,101859.06
2018-11-23T12:48:04.627Z,101847.60
2018-11-23T12:50:34.080Z,101852.45
2018-11-23T12:53:06.413Z,101839.86
2018-11-23T12:55:32.899Z,101841.97
2018-11-23T12:58:02.403Z,101838.77
2018-11-23T13:00:31.733Z,101835.28
2018-11-23T13:03:02.679Z,101833.61
2018-11-23T13:05:33.184Z,101829.25
2018-11-23T13:08:04.093Z,101820.70
2018-11-23T13:10:33.551Z,101827.56
2018-11-23T13:13:03.347Z,101818.51
2018-11-23T13:15:32.627Z,101825.15
2018-11-23T13:18:02.289Z,101820.05
2018-11-23T13:20:31.628Z,101819.75
2018-11-23T13:23:01.086Z,101810.99
2018-11-23T13:25:31.839Z,101806.92
2018-11-23T13:28:01.604Z,101814.97
2018-11-23T13:30:32.238Z,101819.80
2018-11-23T13:33:01.568Z,101809.84
2018-11-23T13:35:31.511Z,101807.28
2018-11-23T13:38:00.821Z,101805.09
2018-11-23T13:40:30.730Z,101809.14
2018-11-23T13:43:00.853Z,101812.52
2018-11-23T13:45:32.050Z,101812.24
2018-11-23T13:48:01.399Z,101812.16
2018-11-23T13:50:31.072Z,101805.98
2018-11-23T13:53:01.713Z,101807.28
2018-11-23T13:55:31.168Z,101806.11
2018-11-23T13:58:01.281Z,101802.36
2018-11-23T14:00:30.675Z,101806.57
2018-11-23T14:03:00.026Z,101806.31
2018-11-23T14:05:31.216Z,101800.94
2018-11-23T14:08:01.699Z,101799.81
2018-11-23T14:10:31.553Z,101801.40
2018-11-23T14:13:00.954Z,101804.31
2018-11-23T14:15:31.603Z,101801.81
2018-11-23T14:18:01.599Z,101799.30
2018-11-23T14:20:31.495Z,101804.11
2018-11-23T14:23:00.982Z,101798.44
2018-11-23T14:25:31.534Z,101797.02
2018-11-23T14:28:00.850Z,101799.02
2018-11-23T14:30:31.701Z,101804.47
2018-11-23T14:33:01.813Z,101798.34
2018-11-23T14:35:32.974Z,101798.77
2018-11-23T14:38:02.756Z,101800.84
2018-11-23T14:40:32.121Z,101801.08
2018-11-23T14:43:01.538Z,101806.02
2018-11-23T14:45:32.465Z,101795.25
2018-11-23T14:48:05.038Z,101798.63
2018-11-23T14:50:35.851Z,101792.30
2018-11-23T14:53:05.676Z,101794.27
2018-11-23T14:55:35.228Z,101791.68
2018-11-23T14:58:04.518Z,101788.24
2018-11-23T15:00:37.142Z,101787.13
2018-11-23T15:03:07.648Z,101794.81
2018-11-23T15:05:37.502Z,101784.28
2018-11-23T15:08:07.627Z,101780.45
2018-11-23T15:10:37.444Z,101776.87
2018-11-23T15:13:07.840Z,101780.90
2018-11-23T15:15:38.617Z,101776.69
2018-11-23T15:18:09.234Z,101772.41
2018-11-23T15:20:43.073Z,101766.55
2018-11-23T15:23:14.995Z,101766.77
2018-11-23T15:25:45.011Z,101769.94
2018-11-23T15:28:15.135Z,101762.73
2018-11-23T15:30:45.710Z,101757.09
2018-11-23T15:33:16.779Z,101757.25
2018-11-23T15:35:46.557Z,101764.67
2018-11-23T15:38:18.519Z,101760.58
2018-11-23T15:40:48.595Z,101768.80
2018-11-23T15:43:18.934Z,101766.88
2018-11-23T15:45:48.329Z,101755.84
2018-11-23T15:48:17.751Z,101759.88
2018-11-23T15:50:47.104Z,101757.80
2018-11-23T15:53:17.532Z,101757.88
2018-11-23T15:55:46.889Z,101753.88
2018-11-23T15:58:17.260Z,101757.09
2018-11-23T16:00:48.610Z,101751.31
2018-11-23T16:03:18.000Z,101757.19
2018-11-23T16:05:47.355Z,101749.25
2018-11-23T16:08:19.155Z,101750.75
2018-11-23T16:10:48.805Z,101749.51
2018-11-23T16:13:18.205Z,101755.27
2018-11-23T16:15:47.604Z,101745.91
2018-11-23T16:18:16.926Z,101750.97
2018-11-23T16:20:47.141Z,101757.95
2018-11-23T16:23:18.385Z,101762.03
2018-11-23T16:25:48.567Z,101754.89
2018-11-23T16:28:17.913Z,101760.64
2018-11-23T16:30:48.774Z,101754.23
2018-11-23T16:33:21.407Z,101752.41
2018-11-23T16:35:50.874Z,101749.88
2018-11-23T16:38:21.823Z,101750.35
2018-11-23T16:40:53.052Z,101749.34
2018-11-23T16:43:22.367Z,101755.20
2018-11-23T16:45:51.911Z,101747.63
2018-11-23T16:48:21.997Z,101749.67
2018-11-23T16:50:51.441Z,101746.02
2018-11-23T16:53:20.772Z,101746.23
2018-11-23T16:55:50.333Z,101751.13
2018-11-23T16:58:19.662Z,101749.73
2018-11-23T17:00:49.467Z,101747.37
2018-11-23T17:03:20.589Z,101746.33
2018-11-23T17:05:51.402Z,101748.94
2018-11-23T17:08:20.945Z,101743.81
2018-11-23T17:10:50.302Z,101749.15
2018-11-23T17:13:19.626Z,101750.21
2018-11-23T17:15:48.959Z,101750.58
2018-11-23T17:18:18.296Z,101746.66
2018-11-23T17:20:47.570Z,101748.11
2018-11-23T17:23:16.934Z,101739.50
2018-11-23T17:25:46.825Z,101743.00
2018-11-23T17:28:16.141Z,101738.14
2018-11-23T17:30:45.463Z,101738.06
2018-11-23T17:33:14.798Z,101727.48
2018-11-23T17:35:44.341Z,101736.02
2018-11-23T17:38:13.649Z,101731.94
2018-11-23T17:40:43.431Z,101728.28
2018-11-23T17:43:12.766Z,101731.22
2018-11-23T17:45:42.215Z,101736.44
2018-11-23T17:48:12.058Z,101732.19
2018-11-23T17:50:41.370Z,101728.98
2018-11-23T17:53:10.700Z,101733.69
2018-11-23T17:55:40.041Z,101727.25
2018-11-23T17:58:09.359Z,101728.37
2018-11-23T18:00:39.649Z,101732.38
2018-11-23T18:03:08.528Z,101729.31
2018-11-23T18:05:37.965Z,101722.75
2018-11-23T18:08:07.287Z,101723.04
2018-11-23T18:10:37.056Z,101726.59
2018-11-23T18:13:06.368Z,101714.47
2018-11-23T18:15:36.193Z,101716.13
2018-11-23T18:18:06.459Z,101717.08
2018-11-23T18:20:36.138Z,101708.83
2018-11-23T18:23:06.568Z,101710.36
2018-11-23T18:25:38.713Z,101716.45
2018-11-23T18:28:09.661Z,101710.31
2018-11-23T18:30:39.224Z,101715.47
2018-11-23T18:33:09.133Z,101709.02
2018-11-23T18:35:38.512Z,101705.91
2018-11-23T18:38:11.108Z,101705.31
2018-11-23T18:40:40.817Z,101702.61
2018-11-23T18:43:10.151Z,101704.07
2018-11-23T18:45:39.486Z,101697.87
2018-11-23T18:48:08.855Z,101700.61
2018-11-23T18:50:38.216Z,101698.07
2018-11-23T18:53:07.504Z,101694.75
2018-11-23T18:55:37.109Z,101693.21
2018-11-23T18:58:06.433Z,101695.08
2018-11-23T19:00:35.835Z,101685.86
2018-11-23T19:03:06.276Z,101685.34
2018-11-23T19:05:35.611Z,101682.00
2018-11-23T19:08:04.987Z,101679.39
2018-11-23T19:10:34.475Z,101677.45
2018-11-23T19:13:03.782Z,101680.45
2018-11-23T19:15:33.144Z,101678.56
2018-11-23T19:18:02.578Z,101676.10
2018-11-23T19:20:32.010Z,101677.87
2018-11-23T19:23:01.516Z,101669.60
2018-11-23T19:25:30.991Z,101653.06
2018-11-23T19:28:02.332Z,101651.18
2018-11-23T19:30:31.736Z,101645.83
2018-11-23T19:33:01.668Z,101639.79
2018-11-23T19:35:30.623Z,101646.74
2018-11-23T19:38:00.034Z,101637.31
2018-11-23T19:40:29.412Z,101631.11
2018-11-23T19:42:58.876Z,101626.77
2018-11-23T19:45:28.673Z,101617.86
2018-11-23T19:47:58.034Z,101620.20
2018-11-23T19:50:27.360Z,101621.00
2018-11-23T19:52:56.954Z,101620.14
2018-11-23T19:55:26.460Z,101615.54
2018-11-23T19:57:55.886Z,101614.84
2018-11-23T20:00:29.696Z,101606.82
2018-11-23T20:02:59.168Z,101609.55
2018-11-23T20:05:28.469Z,101613.65
2018-11-23T20:07:58.321Z,101615.03
2018-11-23T20:10:28.064Z,101608.62
2018-11-23T20:12:58.610Z,101599.95
2018-11-23T20:15:28.006Z,101604.88
2018-11-23T20:17:57.426Z,101602.83
2018-11-23T20:20:26.751Z,101606.63
2018-11-23T20:22:56.286Z,101598.12
2018-11-23T20:25:25.683Z,101602.91
2018-11-23T20:27:55.137Z,101598.02
2018-11-23T20:30:24.481Z,101587.73
2018-11-23T20:32:53.787Z,101591.36
2018-11-23T20:35:23.702Z,101588.36
2018-11-23T20:37:53.033Z,101587.80
2018-11-23T20:40:23.396Z,101589.66
2018-11-23T20:42:52.768Z,101592.38
2018-11-23T20:45:22.221Z,101597.89
2018-11-23T20:47:51.643Z,101598.93
2018-11-23T20:50:21.066Z,101588.20
2018-11-23T20:52:50.429Z,101590.55
2018-11-23T20:55:21.696Z,101594.61
2018-11-23T20:57:51.279Z,101585.15
2018-11-23T21:00:21.625Z,101580.66
2018-11-23T21:02:52.850Z,101582.81
2018-11-23T21:05:22.959Z,101584.05
2018-11-23T21:07:53.212Z,101582.17
2018-11-23T21:10:25.004Z,101575.65
2018-11-23T21:12:55.413Z,101574.83
2018-11-23T21:15:28.451Z,101563.78
2018-11-23T21:18:01.589Z,101564.45
2018-11-23T21:20:30.027Z,101562.16
2018-11-23T21:22:59.412Z,101555.25
2018-11-23T21:25:28.777Z,101549.31
2018-11-23T21:27:58.092Z,101544.19
2018-11-23T21:30:27.408Z,101554.17
2018-11-23T21:32:57.582Z,101552.18
2018-11-23T21:35:27.034Z,101538.69
2018-11-23T21:37:56.343Z,101538.22
2018-11-23T21:40:25.841Z,101538.11
2018-11-23T21:42:55.226Z,101530.66
2018-11-23T21:45:24.508Z,101536.98
2018-11-23T21:47:53.879Z,101530.05
2018-11-23T21:50:25.589Z,101522.80
2018-11-23T21:52:52.988Z,101523.81
2018-11-23T21:55:25.941Z,101522.15
2018-11-23T21:57:56.616Z,101517.39
2018-11-23T22:00:26.260Z,101524.36
2018-11-23T22:02:55.769Z,101518.00
2018-11-23T22:05:25.074Z,101516.66
2018-11-23T22:07:54.535Z,101524.50
2018-11-23T22:10:23.853Z,101524.14
2018-11-23T22:12:53.515Z,101519.85
2018-11-23T22:15:25.064Z,101521.92
2018-11-23T22:17:56.217Z,101532.21
2018-11-23T22:20:26.828Z,101522.17
2018-11-23T22:22:56.141Z,101518.02
2018-11-23T22:25:25.574Z,101529.28
2018-11-23T22:27:55.062Z,101526.09
2018-11-23T22:30:30.212Z,101519.13
2018-11-23T22:33:00.028Z,101514.72
2018-11-23T22:35:30.506Z,101514.56
2018-11-23T22:37:59.814Z,101508.95
2018-11-23T22:40:29.726Z,101510.06
2018-11-23T22:42:59.913Z,101511.52
2018-11-23T22:45:29.207Z,101507.13
2018-11-23T22:47:58.544Z,101493.05
2018-11-23T22:50:27.914Z,101488.16
2018-11-23T22:52:57.313Z,101493.66
2018-11-23T22:55:26.763Z,101496.96
2018-11-23T22:57:56.145Z,101498.06
2018-11-23T23:00:32.954Z,101498.55
2018-11-23T23:03:02.237Z,101500.64
2018-11-23T23:05:31.565Z,101492.91
2018-11-23T23:08:01.001Z,101491.94
2018-11-23T23:10:30.642Z,101489.23
2018-11-23T23:12:59.972Z,101480.41
2018-11-23T23:15:29.346Z,101477.47
2018-11-23T23:17:58.684Z,101478.34
2018-11-23T23:20:27.944Z,101478.57
2018-11-23T23:22:57.316Z,101469.63
2018-11-23T23:25:26.613Z,101467.70
2018-11-23T23:27:55.950Z,101467.70
2018-11-23T23:30:25.313Z,101465.87
2018-11-23T23:32:54.575Z,101464.53
2018-11-23T23:35:23.868Z,101460.62
2018-11-23T23:37:53.188Z,101458.54
2018-11-23T23:40:22.716Z,101452.66
2018-11-23T23:42:52.184Z,101443.59
2018-11-23T23:45:21.831Z,101443.36
2018-11-23T23:47:51.148Z,101446.15
2018-11-23T23:50:22.617Z,101446.79
2018-11-23T23:52:52.352Z,101441.13
2018-11-23T23:55:21.701Z,101452.03
2018-11-23T23:57:51.895Z,101442.87
